createdAt,value
2022-12-26T00:01:23.971Z,5.53
2022-12-26T00:03:51.184Z,5.13
2022-12-26T00:06:23.787Z,5.05
2022-12-26T00:08:51.387Z,5.18
2022-12-26T00:11:19.029Z,5.03
2022-12-26T00:13:46.461Z,4.90
2022-12-26T00:16:19.738Z,5.22
2022-12-26T00:18:48.165Z,5.22
2022-12-26T00:21:17.948Z,4.65
2022-12-26T00:23:45.502Z,5.43
2022-12-26T00:26:17.106Z,4.72
2022-12-26T00:28:45.197Z,5.22
2022-12-26T00:31:20.008Z,5.00
2022-12-26T00:33:48.056Z,4.80
2022-12-26T00:36:22.675Z,5.10
2022-12-26T00:38:51.526Z,5.22
2022-12-26T00:41:20.793Z,4.72
2022-12-26T00:43:48.667Z,5.22
2022-12-26T00:46:17.814Z,5.35
2022-12-26T00:48:45.239Z,5.05
2022-12-26T00:51:12.418Z,5.05
2022-12-26T00:53:39.612Z,4.75
2022-12-26T00:56:09.857Z,5.47
2022-12-26T00:58:37.147Z,4.90
2022-12-26T01:01:16.070Z,4.80
2022-12-26T01:03:44.702Z,5.47
2022-12-26T01:06:12.322Z,5.18
2022-12-26T01:08:40.085Z,5.50
2022-12-26T01:11:11.672Z,5.30
2022-12-26T01:13:39.252Z,5.22
2022-12-26T01:16:08.384Z,5.50
2022-12-26T01:18:36.039Z,5.78
2022-12-26T01:21:11.557Z,5.38
2022-12-26T01:23:38.546Z,5.57
2022-12-26T01:26:18.229Z,5.22
2022-12-26T01:28:52.544Z,5.78
2022-12-26T01:31:21.342Z,5.45
2022-12-26T01:33:49.216Z,6.00
2022-12-26T01:36:18.105Z,5.70
2022-12-26T01:38:45.846Z,5.93
2022-12-26T01:41:20.520Z,5.30
2022-12-26T01:46:19.586Z,5.25
2022-12-26T01:48:47.280Z,5.75
2022-12-26T01:51:16.330Z,5.75
2022-12-26T01:53:49.862Z,5.80
2022-12-26T01:56:26.552Z,5.80
2022-12-26T01:59:02.445Z,5.75
2022-12-26T02:01:34.856Z,5.55
2022-12-26T02:04:25.546Z,5.60
2022-12-26T02:06:53.022Z,5.20
2022-12-26T02:09:20.868Z,5.82
2022-12-26T02:12:35.413Z,6.88
2022-12-26T02:14:44.303Z,4.90
2022-12-26T02:17:11.417Z,5.20
2022-12-26T02:20:02.055Z,5.45
2022-12-26T02:23:05.724Z,4.82
2022-12-26T02:26:08.573Z,5.18
2022-12-26T02:29:23.772Z,4.90
2022-12-26T02:32:09.521Z,5.47
2022-12-26T02:35:23.301Z,5.20
2022-12-26T02:38:24.096Z,5.03
2022-12-26T02:41:22.092Z,4.97
2022-12-26T02:44:49.640Z,5.22
2022-12-26T02:47:42.078Z,5.55
2022-12-26T02:50:56.429Z,5.35
2022-12-26T02:54:25.462Z,5.07
2022-12-26T02:57:20.873Z,5.03
2022-12-26T03:00:30.047Z,5.72
2022-12-26T03:03:21.469Z,5.03
2022-12-26T03:06:17.624Z,5.35
2022-12-26T03:09:17.735Z,5.32
2022-12-26T03:12:09.057Z,5.35
2022-12-26T03:14:50.654Z,5.18
2022-12-26T03:18:05.487Z,5.70
2022-12-26T03:20:37.001Z,5.03
2022-12-26T03:23:11.734Z,5.22
2022-12-26T03:26:14.902Z,5.65
2022-12-26T03:28:43.593Z,5.10
2022-12-26T03:31:14.451Z,5.80
2022-12-26T03:34:04.454Z,4.80
2022-12-26T03:37:21.731Z,4.82
2022-12-26T03:40:44.548Z,5.15
2022-12-26T03:43:48.643Z,4.80
2022-12-26T03:46:46.584Z,4.75
2022-12-26T03:49:45.889Z,4.32
2022-12-26T03:52:51.054Z,4.22
2022-12-26T03:56:32.601Z,4.95
2022-12-26T03:59:31.875Z,4.40
2022-12-26T04:02:25.262Z,4.25
2022-12-26T04:05:17.256Z,4.13
2022-12-26T04:08:18.599Z,3.83
2022-12-26T04:11:13.473Z,4.53
2022-12-26T04:14:24.613Z,3.80
2022-12-26T04:17:44.695Z,4.00
2022-12-26T04:20:35.703Z,3.95
2022-12-26T04:23:29.697Z,4.68
2022-12-26T04:26:40.160Z,3.92
2022-12-26T04:29:26.430Z,4.80
2022-12-26T04:32:29.330Z,4.47
2022-12-26T04:35:28.305Z,5.22
2022-12-26T04:38:15.840Z,4.25
2022-12-26T04:41:09.444Z,4.80
2022-12-26T04:43:56.804Z,4.45
2022-12-26T04:46:25.922Z,4.22
2022-12-26T04:49:13.548Z,4.38
2022-12-26T04:51:40.629Z,4.32
2022-12-26T04:54:07.867Z,3.45
2022-12-26T04:56:35.173Z,3.70
2022-12-26T04:59:02.313Z,3.88
2022-12-26T05:01:47.938Z,2.60
2022-12-26T05:04:36.439Z,1.90
2022-12-26T05:07:27.847Z,1.65
2022-12-26T05:09:54.881Z,1.60
2022-12-26T05:12:22.325Z,1.58
2022-12-26T05:14:50.324Z,1.83
2022-12-26T05:17:36.775Z,1.60
2022-12-26T05:23:08.827Z,2.13
2022-12-26T05:25:59.746Z,1.58
2022-12-26T05:28:41.563Z,1.58
2022-12-26T05:31:17.464Z,1.42
2022-12-26T05:34:03.449Z,1.63
2022-12-26T05:36:43.264Z,1.60
2022-12-26T05:39:10.211Z,1.60
2022-12-26T05:41:38.363Z,1.70
2022-12-26T05:44:06.505Z,1.60
2022-12-26T05:46:34.480Z,1.75
2022-12-26T05:49:01.926Z,1.83
2022-12-26T05:51:28.910Z,1.73
2022-12-26T05:53:55.827Z,2.35
2022-12-26T05:56:23.099Z,1.83
2022-12-26T05:58:59.541Z,1.83
2022-12-26T06:01:28.825Z,2.08
2022-12-26T06:03:59.436Z,2.08
2022-12-26T06:06:27.845Z,2.20
2022-12-26T06:08:56.980Z,1.80
2022-12-26T06:11:26.553Z,1.67
2022-12-26T06:13:54.450Z,1.48
2022-12-26T06:16:21.599Z,2.08
2022-12-26T06:18:49.591Z,2.00
2022-12-26T06:21:19.790Z,1.52
2022-12-26T06:23:48.020Z,1.55
2022-12-26T06:26:15.839Z,2.30
2022-12-26T06:28:44.677Z,1.50
2022-12-26T06:31:22.484Z,1.98
2022-12-26T06:34:01.994Z,2.20
2022-12-26T06:36:29.942Z,1.52
2022-12-26T06:38:58.060Z,2.00
2022-12-26T06:41:25.763Z,2.00
2022-12-26T06:43:53.216Z,1.92
2022-12-26T06:46:24.262Z,1.92
2022-12-26T06:48:52.718Z,1.90
2022-12-26T06:51:26.261Z,1.60
2022-12-26T06:53:53.848Z,2.00
2022-12-26T06:56:27.426Z,2.45
2022-12-26T06:58:57.452Z,1.70
2022-12-26T07:01:25.807Z,2.00
2022-12-26T07:03:54.511Z,1.50
2022-12-26T07:06:28.792Z,1.83
2022-12-26T07:09:22.123Z,1.75
2022-12-26T07:11:50.701Z,1.80
2022-12-26T07:14:18.039Z,1.67
2022-12-26T07:16:46.139Z,1.75
2022-12-26T07:19:15.590Z,1.85
2022-12-26T07:21:44.265Z,1.90
2022-12-26T07:24:18.340Z,1.67
2022-12-26T07:26:46.654Z,1.80
2022-12-26T07:29:15.683Z,1.75
2022-12-26T07:31:43.188Z,2.00
2022-12-26T07:34:10.516Z,1.67
2022-12-26T07:36:37.636Z,1.90
2022-12-26T07:39:04.731Z,1.85
2022-12-26T07:41:50.308Z,2.20
2022-12-26T07:44:17.331Z,2.00
2022-12-26T07:46:46.674Z,2.13
2022-12-26T07:49:13.971Z,1.75
2022-12-26T07:51:42.773Z,1.90
2022-12-26T07:54:11.951Z,2.17
2022-12-26T07:56:40.601Z,1.60
2022-12-26T07:59:13.029Z,2.15
2022-12-26T08:01:40.042Z,1.73
2022-12-26T08:04:07.125Z,1.75
2022-12-26T08:06:34.428Z,1.85
2022-12-26T08:09:01.338Z,2.22
2022-12-26T08:11:33.300Z,1.70
2022-12-26T08:14:00.711Z,1.60
2022-12-26T08:16:27.981Z,1.63
2022-12-26T08:18:54.885Z,1.95
2022-12-26T08:21:21.748Z,2.20
2022-12-26T08:23:48.791Z,1.90
2022-12-26T08:26:20.743Z,2.00
2022-12-26T08:28:48.113Z,1.70
2022-12-26T08:31:15.414Z,1.42
2022-12-26T08:33:42.844Z,1.70
2022-12-26T08:36:12.993Z,1.55
2022-12-26T08:38:40.922Z,1.80
2022-12-26T08:41:08.872Z,1.55
2022-12-26T08:44:24.504Z,1.63
2022-12-26T08:46:23.570Z,1.67
2022-12-26T08:48:51.995Z,1.73
2022-12-26T08:51:27.956Z,1.60
2022-12-26T08:53:55.630Z,1.63
2022-12-26T08:56:25.864Z,1.80
2022-12-26T08:58:53.748Z,1.95
2022-12-26T09:01:30.871Z,1.77
2022-12-26T09:04:03.907Z,1.70
2022-12-26T09:06:37.634Z,1.65
2022-12-26T09:09:07.099Z,1.92
2022-12-26T09:11:34.607Z,2.10
2022-12-26T09:14:02.922Z,2.05
2022-12-26T09:16:42.995Z,1.90
2022-12-26T09:19:18.958Z,1.83
2022-12-26T09:21:47.569Z,1.55
2022-12-26T09:24:18.222Z,1.60
2022-12-26T09:26:45.414Z,1.80
2022-12-26T09:29:13.494Z,1.88
2022-12-26T09:31:40.592Z,2.20
2022-12-26T09:34:08.206Z,1.95
2022-12-26T09:36:38.432Z,1.70
2022-12-26T09:39:06.952Z,1.80
2022-12-26T09:42:22.410Z,1.60
2022-12-26T09:45:15.228Z,2.00
2022-12-26T09:48:21.692Z,1.80
2022-12-26T09:50:52.038Z,1.80
2022-12-26T09:53:36.896Z,1.42
2022-12-26T09:59:16.621Z,1.60
2022-12-26T10:01:43.819Z,2.03
2022-12-26T10:04:28.950Z,1.65
2022-12-26T10:07:15.208Z,1.70
2022-12-26T10:10:08.054Z,1.55
2022-12-26T10:12:52.005Z,1.80
2022-12-26T10:16:06.519Z,1.52
2022-12-26T10:19:15.091Z,2.28
2022-12-26T10:22:03.688Z,2.17
2022-12-26T10:24:38.168Z,2.00
2022-12-26T10:27:15.695Z,2.08
2022-12-26T10:29:55.487Z,1.90
2022-12-26T10:32:46.979Z,3.08
2022-12-26T10:35:43.547Z,2.33
2022-12-26T10:38:28.861Z,2.53
2022-12-26T10:41:05.673Z,2.08
2022-12-26T10:43:35.779Z,1.80
2022-12-26T10:46:20.636Z,2.33
2022-12-26T10:48:48.389Z,2.75
2022-12-26T10:51:16.681Z,2.47
2022-12-26T10:53:50.254Z,2.25
2022-12-26T10:56:18.697Z,2.10
2022-12-26T10:58:49.695Z,2.42
2022-12-26T11:01:28.846Z,1.83
2022-12-26T11:04:05.176Z,2.67
2022-12-26T11:06:41.013Z,1.90
2022-12-26T11:09:48.422Z,2.50
2022-12-26T11:12:41.733Z,2.33
2022-12-26T11:15:26.863Z,1.90
2022-12-26T11:17:55.612Z,2.22
2022-12-26T11:20:29.722Z,2.10
2022-12-26T11:23:18.962Z,2.08
2022-12-26T11:25:56.145Z,1.92
2022-12-26T11:28:29.062Z,2.10
2022-12-26T11:30:57.436Z,1.75
2022-12-26T11:33:33.762Z,1.70
2022-12-26T11:36:18.208Z,1.80
2022-12-26T11:38:50.327Z,1.80
2022-12-26T11:41:31.555Z,1.60
2022-12-26T11:44:10.296Z,1.55
2022-12-26T11:46:48.632Z,1.77
2022-12-26T11:49:45.823Z,1.80
2022-12-26T11:52:31.316Z,1.80
2022-12-26T11:54:58.520Z,1.65
2022-12-26T11:57:31.946Z,2.00
2022-12-26T12:00:22.115Z,1.80
2022-12-26T12:02:49.385Z,1.77
2022-12-26T12:05:42.428Z,1.80
2022-12-26T12:08:37.499Z,2.03
2022-12-26T12:11:19.680Z,1.67
2022-12-26T12:14:04.958Z,1.50
2022-12-26T12:16:52.825Z,1.60
2022-12-26T12:20:30.143Z,1.42
2022-12-26T12:26:02.154Z,1.70
2022-12-26T12:29:01.232Z,2.05
2022-12-26T12:31:50.937Z,1.58
2022-12-26T12:35:07.658Z,1.50
2022-12-26T12:38:05.177Z,3.78
2022-12-26T12:41:04.402Z,2.00
2022-12-26T12:43:54.826Z,1.48
2022-12-26T12:46:45.881Z,1.48
2022-12-26T12:49:41.372Z,1.88
2022-12-26T12:52:55.294Z,1.38
2022-12-26T12:55:51.555Z,1.40
2022-12-26T12:58:18.390Z,1.42
2022-12-26T13:00:54.198Z,1.27
2022-12-26T13:03:30.371Z,1.35
2022-12-26T13:06:17.941Z,1.23
2022-12-26T13:09:02.473Z,1.10
2022-12-26T13:11:38.115Z,2.00
2022-12-26T13:14:22.267Z,1.17
2022-12-26T13:17:20.479Z,0.80
2022-12-26T13:20:31.149Z,0.65
2022-12-26T13:23:29.035Z,0.40
2022-12-26T13:26:12.083Z,0.60
2022-12-26T13:28:50.857Z,0.50
2022-12-26T13:31:17.922Z,0.60
2022-12-26T13:33:45.041Z,0.50
2022-12-26T13:36:41.228Z,1.13
2022-12-26T13:39:08.132Z,0.60
2022-12-26T13:41:55.348Z,0.60
2022-12-26T13:44:22.944Z,0.63
2022-12-26T13:46:49.789Z,0.82
2022-12-26T13:49:27.243Z,0.80
2022-12-26T13:52:19.481Z,0.88
2022-12-26T13:54:51.961Z,0.60
2022-12-26T13:57:34.625Z,0.77
2022-12-26T14:00:05.738Z,1.30
2022-12-26T14:03:18.045Z,0.98
2022-12-26T14:06:26.509Z,0.98
2022-12-26T14:09:48.949Z,2.20
2022-12-26T14:12:33.782Z,1.27
2022-12-26T14:15:18.979Z,1.10
2022-12-26T14:18:09.319Z,1.00
2022-12-26T14:21:14.421Z,1.80
2022-12-26T14:24:02.435Z,2.50
2022-12-26T14:27:08.730Z,2.25
2022-12-26T14:33:22.146Z,2.15
2022-12-26T14:36:10.289Z,2.42
2022-12-26T14:39:03.890Z,2.50
2022-12-26T14:42:27.462Z,1.80
2022-12-26T14:45:00.373Z,1.48
2022-12-26T14:47:49.245Z,1.73
2022-12-26T14:50:38.792Z,2.05
2022-12-26T14:53:34.536Z,1.90
2022-12-26T14:56:10.644Z,2.33
2022-12-26T14:58:45.041Z,1.85
2022-12-26T15:01:20.755Z,2.55
2022-12-26T15:04:33.897Z,2.08
2022-12-26T15:07:38.505Z,2.30
2022-12-26T15:10:21.547Z,2.58
2022-12-26T15:13:33.600Z,2.08
2022-12-26T15:16:28.499Z,1.75
2022-12-26T15:19:34.926Z,2.40
2022-12-26T15:22:57.907Z,1.52
2022-12-26T15:25:51.654Z,1.55
2022-12-26T15:28:39.598Z,1.52
2022-12-26T15:31:32.581Z,1.30
2022-12-26T15:34:11.860Z,1.48
2022-12-26T15:37:13.568Z,1.67
2022-12-26T15:39:56.028Z,1.15
2022-12-26T15:43:06.575Z,1.55
2022-12-26T15:46:00.409Z,1.73
2022-12-26T15:49:04.780Z,1.50
2022-12-26T15:52:41.331Z,1.60
2022-12-26T15:55:15.490Z,1.30
2022-12-26T15:57:58.274Z,1.73
2022-12-26T16:00:32.178Z,1.35
2022-12-26T16:03:25.321Z,1.38
2022-12-26T16:06:40.370Z,1.60
2022-12-26T16:09:13.115Z,2.45
2022-12-26T16:11:43.295Z,2.00
2022-12-26T16:14:33.977Z,1.92
2022-12-26T16:17:18.199Z,2.90
2022-12-26T16:19:51.695Z,2.35
2022-12-26T16:22:49.483Z,2.40
2022-12-26T16:25:26.427Z,2.97
2022-12-26T16:27:57.218Z,2.58
2022-12-26T16:30:28.845Z,2.78
2022-12-26T16:32:56.101Z,2.42
2022-12-26T16:35:39.364Z,2.50
2022-12-26T16:38:15.163Z,3.75
2022-12-26T16:40:47.489Z,4.10
2022-12-26T16:43:26.857Z,4.88
2022-12-26T16:46:02.481Z,4.22
2022-12-26T16:48:32.936Z,4.75
2022-12-26T16:51:26.659Z,6.00
2022-12-26T16:53:53.701Z,5.50
2022-12-26T16:56:28.965Z,5.88
2022-12-26T16:59:25.596Z,4.93
2022-12-26T17:01:59.711Z,4.68
2022-12-26T17:04:30.898Z,4.07
2022-12-26T17:07:06.465Z,4.38
2022-12-26T17:09:44.763Z,4.53
2022-12-26T17:12:27.642Z,5.03
2022-12-26T17:14:58.414Z,4.18
2022-12-26T17:17:28.807Z,4.38
2022-12-26T17:19:58.975Z,3.63
2022-12-26T17:22:35.472Z,3.28
2022-12-26T17:25:17.747Z,3.15
2022-12-26T17:27:46.280Z,2.75
2022-12-26T17:30:30.669Z,2.40
2022-12-26T17:33:12.749Z,2.35
2022-12-26T17:36:25.379Z,4.78
2022-12-26T17:38:29.393Z,2.78
2022-12-26T17:41:00.965Z,2.95
2022-12-26T17:43:38.153Z,3.78
2022-12-26T17:46:07.857Z,3.58
2022-12-26T17:48:35.041Z,3.40
2022-12-26T17:51:05.455Z,4.22
2022-12-26T17:53:40.399Z,6.72
2022-12-26T17:56:25.507Z,5.13
2022-12-26T17:58:52.594Z,4.50
2022-12-26T18:01:21.893Z,3.97
2022-12-26T18:03:51.950Z,3.13
2022-12-26T18:06:19.845Z,3.92
2022-12-26T18:08:46.826Z,5.93
2022-12-26T18:11:14.828Z,4.63
2022-12-26T18:13:44.318Z,2.92
2022-12-26T18:16:18.847Z,3.78
2022-12-26T18:18:48.134Z,2.17
2022-12-26T18:21:16.723Z,2.00
2022-12-26T18:23:44.186Z,2.05
2022-12-26T18:26:26.601Z,1.95
2022-12-26T18:28:54.199Z,1.50
2022-12-26T18:31:21.313Z,2.35
2022-12-26T18:33:48.251Z,2.05
2022-12-26T18:36:17.139Z,3.15
2022-12-26T18:38:45.081Z,3.13
2022-12-26T18:41:17.978Z,3.30
2022-12-26T18:43:45.720Z,3.67
2022-12-26T18:46:17.451Z,3.60
2022-12-26T18:48:44.702Z,2.22
2022-12-26T18:51:12.178Z,2.97
2022-12-26T18:53:39.291Z,2.72
2022-12-26T18:56:07.423Z,2.30
2022-12-26T18:58:34.296Z,3.08
2022-12-26T19:01:03.588Z,2.38
2022-12-26T19:03:30.571Z,2.65
2022-12-26T19:05:57.436Z,4.10
2022-12-26T19:08:24.328Z,3.72
2022-12-26T19:10:51.207Z,2.30
2022-12-26T19:13:18.115Z,1.80
2022-12-26T19:15:47.230Z,3.05
2022-12-26T19:18:14.308Z,1.23
2022-12-26T19:20:44.585Z,1.23
2022-12-26T19:23:11.817Z,1.05
2022-12-26T19:25:38.868Z,1.20
2022-12-26T19:28:06.570Z,1.00
2022-12-26T19:30:38.533Z,0.80
2022-12-26T19:33:06.617Z,0.80
2022-12-26T19:35:33.642Z,0.88
2022-12-26T19:38:00.558Z,1.15
2022-12-26T19:40:27.450Z,1.58
2022-12-26T19:42:54.335Z,2.20
2022-12-26T19:45:21.303Z,1.27
2022-12-26T19:47:48.276Z,1.15
2022-12-26T19:50:15.296Z,1.08
2022-12-26T19:52:42.289Z,1.00
2022-12-26T19:55:12.786Z,1.20
2022-12-26T19:57:39.840Z,1.05
2022-12-26T20:00:08.146Z,1.00
2022-12-26T20:02:41.522Z,0.90
2022-12-26T20:05:09.268Z,0.80
2022-12-26T20:10:22.489Z,0.70
2022-12-26T20:12:49.442Z,0.90
2022-12-26T20:15:16.379Z,0.98
2022-12-26T20:17:43.308Z,1.20
2022-12-26T20:20:13.100Z,0.73
2022-12-26T20:22:40.076Z,0.40
2022-12-26T20:25:09.792Z,0.70
2022-12-26T20:27:36.841Z,0.80
2022-12-26T20:30:05.073Z,0.50
2022-12-26T20:32:31.981Z,0.68
2022-12-26T20:34:59.182Z,0.80
2022-12-26T20:37:26.574Z,0.57
2022-12-26T20:39:53.700Z,0.73
2022-12-26T20:42:20.597Z,0.70
2022-12-26T20:44:47.523Z,0.73
2022-12-26T20:47:14.503Z,0.90
2022-12-26T20:49:41.559Z,0.85
2022-12-26T20:52:08.521Z,1.00
2022-12-26T20:54:35.449Z,1.08
2022-12-26T20:57:02.890Z,0.90
2022-12-26T20:59:29.808Z,1.20
2022-12-26T21:01:56.895Z,1.70
2022-12-26T21:04:23.900Z,1.35
2022-12-26T21:06:50.909Z,2.28
2022-12-26T21:09:18.333Z,2.03
2022-12-26T21:11:45.574Z,2.30
2022-12-26T21:14:17.925Z,2.50
2022-12-26T21:16:58.620Z,2.70
2022-12-26T21:19:28.149Z,2.78
2022-12-26T21:21:56.074Z,3.40
2022-12-26T21:24:31.813Z,3.17
2022-12-26T21:26:59.562Z,3.35
2022-12-26T21:29:30.420Z,3.40
2022-12-26T21:31:58.954Z,2.80
2022-12-26T21:34:30.618Z,2.60
2022-12-26T21:37:17.039Z,2.38
2022-12-26T21:39:44.831Z,2.50
2022-12-26T21:42:11.770Z,2.45
2022-12-26T21:44:39.127Z,2.20
2022-12-26T21:47:09.529Z,2.05
2022-12-26T21:49:37.481Z,2.40
2022-12-26T21:52:07.984Z,2.55
2022-12-26T21:54:53.713Z,2.28
2022-12-26T21:57:21.938Z,2.03
2022-12-26T21:59:59.089Z,1.98
2022-12-26T22:02:57.081Z,1.65
2022-12-26T22:05:28.212Z,1.95
2022-12-26T22:07:59.002Z,1.90
2022-12-26T22:10:49.487Z,1.70
2022-12-26T22:13:17.817Z,1.70
2022-12-26T22:16:10.062Z,1.85
2022-12-26T22:18:47.015Z,2.38
2022-12-26T22:24:11.164Z,1.92
2022-12-26T22:26:38.157Z,1.67
2022-12-26T22:29:05.086Z,1.70
2022-12-26T22:31:37.773Z,1.50
2022-12-26T22:34:12.387Z,1.38
2022-12-26T22:36:40.941Z,1.45
2022-12-26T22:39:11.904Z,1.10
2022-12-26T22:41:38.851Z,1.48
2022-12-26T22:44:05.914Z,1.80
2022-12-26T22:46:32.839Z,1.60
2022-12-26T22:48:59.941Z,1.25
2022-12-26T22:51:27.427Z,1.17
2022-12-26T22:54:00.304Z,1.63
2022-12-26T22:56:28.966Z,1.40
2022-12-26T22:59:02.949Z,1.13
2022-12-26T23:01:30.686Z,2.40
2022-12-26T23:04:00.572Z,1.98
2022-12-26T23:06:32.222Z,2.10
2022-12-26T23:09:02.873Z,2.63
2022-12-26T23:11:35.094Z,1.88
2022-12-26T23:14:06.752Z,2.53
2022-12-26T23:16:47.554Z,2.20
2022-12-26T23:20:06.378Z,2.58
2022-12-26T23:22:33.711Z,2.60
2022-12-26T23:25:00.615Z,2.92
2022-12-26T23:27:47.257Z,2.42
2022-12-26T23:30:20.240Z,2.38
2022-12-26T23:32:53.299Z,2.53
2022-12-26T23:35:22.018Z,2.25
2022-12-26T23:37:49.346Z,2.33
2022-12-26T23:40:18.526Z,3.25
2022-12-26T23:42:46.050Z,2.58
2022-12-26T23:45:14.796Z,2.10
2022-12-26T23:47:44.088Z,1.40
2022-12-26T23:50:13.569Z,1.83
2022-12-26T23:52:41.207Z,2.15
2022-12-26T23:55:09.210Z,2.25
2022-12-26T23:57:36.224Z,1.90
